createdAt,value
2019-05-10T00:00:08.768Z,11.40
2019-05-10T00:02:55.381Z,11.30
2019-05-10T00:05:42.127Z,11.93
2019-05-10T00:08:29.000Z,11.60
2019-05-10T00:11:05.816Z,11.53
2019-05-10T00:13:37.700Z,10.80
2019-05-10T00:16:06.163Z,11.33
2019-05-10T00:18:34.692Z,11.83
2019-05-10T00:21:03.316Z,11.40
2019-05-10T00:23:31.783Z,11.87
2019-05-10T00:26:00.288Z,11.70
2019-05-10T00:28:28.730Z,11.67
2019-05-10T00:30:57.213Z,10.87
2019-05-10T00:33:25.731Z,11.43
2019-05-10T00:35:54.206Z,11.57
2019-05-10T00:38:22.659Z,11.07
2019-05-10T00:40:51.175Z,11.80
2019-05-10T00:43:19.684Z,10.80
2019-05-10T00:45:48.225Z,11.47
2019-05-10T00:48:16.672Z,10.80
2019-05-10T00:50:45.142Z,11.40
2019-05-10T00:53:13.680Z,11.73
2019-05-10T00:55:42.252Z,11.50
2019-05-10T00:58:10.995Z,11.50
2019-05-10T01:00:39.499Z,10.60
2019-05-10T01:03:07.983Z,10.87
2019-05-10T01:05:36.431Z,10.57
2019-05-10T01:08:04.954Z,11.10
2019-05-10T01:10:33.391Z,11.53
2019-05-10T01:13:01.850Z,11.70
2019-05-10T01:15:30.288Z,12.03
2019-05-10T01:17:58.833Z,11.87
2019-05-10T01:20:27.339Z,11.33
2019-05-10T01:22:55.964Z,11.13
2019-05-10T01:25:34.869Z,10.77
2019-05-10T01:27:54.595Z,11.27
2019-05-10T01:30:23.043Z,11.10
2019-05-10T01:32:51.567Z,11.33
2019-05-10T01:35:20.011Z,11.13
2019-05-10T01:37:48.476Z,11.03
2019-05-10T01:40:17.054Z,11.60
2019-05-10T01:42:45.515Z,11.13
2019-05-10T01:45:14.396Z,11.50
2019-05-10T01:47:42.855Z,11.97
2019-05-10T01:50:11.632Z,11.77
2019-05-10T01:52:40.112Z,12.10
2019-05-10T01:55:08.691Z,11.87
2019-05-10T01:57:37.455Z,11.07
2019-05-10T02:00:08.524Z,12.03
2019-05-10T02:02:37.006Z,11.53
2019-05-10T02:05:06.295Z,11.73
2019-05-10T02:07:34.752Z,11.53
2019-05-10T02:10:06.891Z,11.47
2019-05-10T02:12:35.346Z,12.20
2019-05-10T02:15:05.267Z,11.90
2019-05-10T02:17:33.727Z,12.97
2019-05-10T02:20:02.641Z,12.80
2019-05-10T02:22:31.155Z,12.10
2019-05-10T02:24:59.607Z,13.70
2019-05-10T02:27:28.043Z,13.00
2019-05-10T02:29:56.499Z,13.60
2019-05-10T02:32:24.953Z,12.63
2019-05-10T02:34:53.412Z,13.10
2019-05-10T02:37:22.162Z,13.70
2019-05-10T02:39:50.623Z,13.00
2019-05-10T02:42:19.052Z,11.90
2019-05-10T02:44:47.620Z,12.13
2019-05-10T02:47:16.060Z,12.80
2019-05-10T02:49:44.530Z,12.13
2019-05-10T02:52:13.048Z,11.30
2019-05-10T02:54:42.281Z,13.00
2019-05-10T02:57:12.470Z,12.60
2019-05-10T02:59:41.590Z,13.37
2019-05-10T03:02:10.033Z,13.83
2019-05-10T03:04:38.514Z,12.53
2019-05-10T03:07:07.495Z,14.00
2019-05-10T03:09:36.160Z,12.33
2019-05-10T03:12:19.639Z,13.87
2019-05-10T03:14:51.180Z,11.80
2019-05-10T03:17:20.234Z,12.93
2019-05-10T03:19:51.772Z,13.77
2019-05-10T03:22:22.165Z,12.53
2019-05-10T03:24:50.972Z,13.03
2019-05-10T03:27:19.486Z,13.87
2019-05-10T03:29:48.780Z,13.67
2019-05-10T03:32:17.380Z,13.67
2019-05-10T03:34:45.911Z,12.73
2019-05-10T03:37:14.779Z,14.87
2019-05-10T03:39:43.316Z,11.37
2019-05-10T03:42:11.827Z,13.10
2019-05-10T03:44:40.564Z,13.23
2019-05-10T03:47:09.012Z,12.77
2019-05-10T03:49:37.472Z,13.90
2019-05-10T03:52:05.948Z,13.23
2019-05-10T03:54:34.522Z,12.37
2019-05-10T03:57:13.186Z,11.37
2019-05-10T03:59:33.225Z,14.37
2019-05-10T04:02:01.684Z,13.73
2019-05-10T04:04:30.213Z,14.17
2019-05-10T04:06:59.148Z,14.50
2019-05-10T04:09:27.587Z,13.67
2019-05-10T04:11:56.051Z,13.57
2019-05-10T04:14:24.495Z,14.57
2019-05-10T04:16:53.037Z,14.17
2019-05-10T04:19:21.542Z,14.00
2019-05-10T04:21:50.012Z,14.07
2019-05-10T04:24:18.520Z,13.83
2019-05-10T04:26:46.986Z,13.13
2019-05-10T04:29:15.455Z,15.97
2019-05-10T04:31:43.960Z,12.50
2019-05-10T04:34:12.422Z,12.77
2019-05-10T04:36:40.951Z,13.07
2019-05-10T04:39:09.459Z,11.00
2019-05-10T04:41:37.920Z,11.80
2019-05-10T04:44:06.364Z,11.90
2019-05-10T04:46:34.827Z,10.97
2019-05-10T04:49:03.390Z,12.80
2019-05-10T04:51:31.963Z,12.27
2019-05-10T04:54:00.399Z,11.57
2019-05-10T04:56:28.890Z,13.17
2019-05-10T04:58:57.331Z,12.67
2019-05-10T05:01:25.792Z,12.60
2019-05-10T05:03:54.231Z,12.57
2019-05-10T05:06:22.693Z,13.43
2019-05-10T05:08:51.151Z,11.70
2019-05-10T05:11:19.592Z,13.43
2019-05-10T05:13:49.253Z,12.47
2019-05-10T05:16:17.692Z,13.87
2019-05-10T05:18:46.215Z,12.73
2019-05-10T05:21:14.943Z,12.70
2019-05-10T05:23:43.475Z,11.87
2019-05-10T05:26:11.915Z,14.00
2019-05-10T05:28:40.380Z,11.30
2019-05-10T05:31:08.819Z,14.67
2019-05-10T05:33:37.280Z,11.43
2019-05-10T05:36:05.771Z,11.93
2019-05-10T05:38:34.232Z,11.27
2019-05-10T05:41:02.671Z,13.20
2019-05-10T05:43:31.135Z,11.67
2019-05-10T05:46:00.271Z,11.70
2019-05-10T05:48:40.099Z,11.57
2019-05-10T05:50:58.982Z,12.93
2019-05-10T05:53:27.464Z,13.10
2019-05-10T05:55:55.905Z,12.87
2019-05-10T05:58:27.170Z,13.47
2019-05-10T06:00:54.812Z,12.93
2019-05-10T06:03:27.752Z,12.70
2019-05-10T06:05:53.975Z,13.00
2019-05-10T06:08:24.844Z,13.07
2019-05-10T06:10:57.906Z,13.47
2019-05-10T06:13:29.338Z,11.63
2019-05-10T06:15:53.206Z,12.13
2019-05-10T06:18:21.739Z,11.77
2019-05-10T06:20:50.179Z,12.73
2019-05-10T06:23:18.657Z,13.80
2019-05-10T06:25:47.159Z,11.60
2019-05-10T06:28:26.349Z,11.13
2019-05-10T06:30:45.870Z,12.90
2019-05-10T06:33:14.390Z,14.10
2019-05-10T06:35:42.839Z,12.63
2019-05-10T06:38:11.295Z,13.53
2019-05-10T06:40:46.757Z,12.80
2019-05-10T06:43:13.416Z,13.97
2019-05-10T06:45:40.107Z,11.90
2019-05-10T06:48:08.566Z,13.17
2019-05-10T06:50:37.019Z,14.47
2019-05-10T06:53:10.962Z,13.33
2019-05-10T06:55:35.667Z,13.80
2019-05-10T06:58:04.115Z,12.43
2019-05-10T07:00:37.882Z,10.77
2019-05-10T07:03:02.739Z,12.30
2019-05-10T07:05:31.201Z,12.47
2019-05-10T07:08:13.179Z,13.23
2019-05-10T07:10:33.672Z,13.00
2019-05-10T07:13:03.774Z,12.73
2019-05-10T07:15:30.187Z,13.27
2019-05-10T07:17:58.655Z,12.73
2019-05-10T07:20:29.522Z,11.53
2019-05-10T07:23:16.656Z,13.40
2019-05-10T07:25:46.724Z,13.30
2019-05-10T07:28:17.278Z,13.07
2019-05-10T07:30:45.619Z,13.17
2019-05-10T07:33:14.092Z,13.27
2019-05-10T07:35:42.541Z,33.10
2019-05-10T07:38:11.062Z,13.27
2019-05-10T07:40:39.519Z,12.67
2019-05-10T07:43:08.302Z,14.13
2019-05-10T07:45:36.768Z,11.87
2019-05-10T07:48:08.149Z,11.90
2019-05-10T07:50:35.522Z,13.93
2019-05-10T07:53:04.043Z,14.20
2019-05-10T07:55:32.640Z,12.53
2019-05-10T07:58:05.029Z,15.80
2019-05-10T08:00:31.335Z,13.47
2019-05-10T08:03:11.816Z,13.70
2019-05-10T08:05:30.151Z,12.73
2019-05-10T08:07:58.989Z,12.87
2019-05-10T08:10:28.994Z,11.90
2019-05-10T08:12:59.557Z,12.03
2019-05-10T08:15:30.637Z,12.87
2019-05-10T08:17:58.516Z,13.00
2019-05-10T08:20:42.341Z,13.20
2019-05-10T08:22:57.375Z,12.63
2019-05-10T08:25:28.955Z,10.73
2019-05-10T08:27:56.021Z,12.50
2019-05-10T08:30:36.250Z,13.10
2019-05-10T08:33:09.318Z,13.33
2019-05-10T08:35:36.729Z,13.00
2019-05-10T08:38:05.903Z,13.60
2019-05-10T08:40:37.855Z,12.47
2019-05-10T08:43:08.514Z,12.20
2019-05-10T08:45:38.690Z,13.97
2019-05-10T08:48:07.135Z,13.60
2019-05-10T08:50:49.676Z,13.20
2019-05-10T08:53:11.117Z,12.37
2019-05-10T08:55:36.348Z,13.40
2019-05-10T08:58:05.355Z,12.60
2019-05-10T09:00:45.599Z,12.50
2019-05-10T09:03:09.522Z,11.70
2019-05-10T09:05:35.145Z,11.60
2019-05-10T09:08:05.831Z,12.47
2019-05-10T09:10:34.316Z,11.10
2019-05-10T09:13:03.478Z,11.90
2019-05-10T09:15:33.047Z,12.47
2019-05-10T09:18:04.301Z,11.87
2019-05-10T09:20:32.134Z,11.40
2019-05-10T09:23:02.364Z,16.10
2019-05-10T09:25:33.611Z,11.17
2019-05-10T09:28:04.520Z,11.80
2019-05-10T09:30:35.561Z,8.73
2019-05-10T09:33:08.439Z,10.40
2019-05-10T09:35:38.916Z,10.07
2019-05-10T09:38:05.372Z,9.50
2019-05-10T09:40:33.918Z,8.70
2019-05-10T09:43:05.202Z,9.63
2019-05-10T09:45:32.964Z,10.50
2019-05-10T09:48:02.447Z,9.33
2019-05-10T09:50:41.365Z,9.53
2019-05-10T09:53:01.517Z,10.03
2019-05-10T09:55:30.108Z,9.80
2019-05-10T09:57:58.559Z,9.80
2019-05-10T10:00:37.713Z,9.47
2019-05-10T10:03:07.932Z,9.83
2019-05-10T10:05:39.763Z,9.57
2019-05-10T10:08:09.025Z,10.50
2019-05-10T10:10:37.144Z,9.30
2019-05-10T10:13:13.396Z,9.07
2019-05-10T10:15:37.254Z,8.73
2019-05-10T10:18:06.308Z,8.97
2019-05-10T10:20:43.307Z,17.63
2019-05-10T10:23:07.196Z,9.10
2019-05-10T10:25:40.595Z,8.63
2019-05-10T10:28:08.264Z,9.47
2019-05-10T10:30:37.388Z,9.80
2019-05-10T10:33:11.254Z,8.93
2019-05-10T10:35:37.768Z,9.33
2019-05-10T10:38:07.995Z,9.97
2019-05-10T10:40:44.146Z,8.60
2019-05-10T10:43:07.696Z,8.80
2019-05-10T10:45:37.660Z,11.20
2019-05-10T10:48:08.448Z,8.80
2019-05-10T10:50:36.755Z,9.23
2019-05-10T10:53:07.779Z,9.60
2019-05-10T10:55:37.841Z,9.13
2019-05-10T10:58:07.340Z,9.13
2019-05-10T11:00:38.852Z,9.90
2019-05-10T11:03:06.881Z,9.83
2019-05-10T11:05:35.492Z,8.20
2019-05-10T11:08:04.015Z,9.70
2019-05-10T11:10:33.018Z,8.70
2019-05-10T11:13:07.986Z,9.03
2019-05-10T11:15:35.943Z,10.13
2019-05-10T11:18:02.005Z,9.43
2019-05-10T11:20:31.760Z,9.20
2019-05-10T11:23:00.532Z,9.33
2019-05-10T11:25:29.129Z,8.17
2019-05-10T11:27:59.270Z,8.53
2019-05-10T11:30:27.890Z,8.87
2019-05-10T11:32:56.751Z,9.73
2019-05-10T11:35:30.717Z,9.73
2019-05-10T11:37:55.418Z,8.87
2019-05-10T11:40:30.784Z,8.60
2019-05-10T11:42:54.218Z,9.30
2019-05-10T11:45:26.076Z,9.57
2019-05-10T11:47:58.729Z,10.27
2019-05-10T11:50:31.303Z,10.10
2019-05-10T11:52:53.810Z,10.00
2019-05-10T11:55:22.273Z,8.20
2019-05-10T11:58:01.901Z,8.23
2019-05-10T12:00:28.453Z,9.00
2019-05-10T12:03:12.527Z,9.70
2019-05-10T12:05:26.440Z,8.20
2019-05-10T12:07:54.727Z,7.93
2019-05-10T12:10:25.722Z,8.37
2019-05-10T12:13:08.560Z,7.50
2019-05-10T12:15:25.682Z,8.70
2019-05-10T12:17:59.294Z,8.33
2019-05-10T12:20:38.972Z,8.73
2019-05-10T12:22:54.728Z,9.57
2019-05-10T12:25:41.917Z,10.33
2019-05-10T12:27:53.590Z,9.80
2019-05-10T12:30:22.208Z,9.77
2019-05-10T12:32:56.108Z,10.10
2019-05-10T12:35:21.384Z,10.37
2019-05-10T12:37:54.240Z,9.03
2019-05-10T12:40:23.854Z,7.80
2019-05-10T12:42:50.982Z,8.33
2019-05-10T12:45:23.034Z,9.00
2019-05-10T12:47:51.769Z,9.40
2019-05-10T12:50:20.245Z,9.97
2019-05-10T12:52:50.525Z,9.53
2019-05-10T12:55:18.970Z,9.00
2019-05-10T12:57:47.402Z,9.53
2019-05-10T13:00:16.395Z,8.00
2019-05-10T13:02:51.460Z,8.90
2019-05-10T13:05:15.974Z,9.87
2019-05-10T13:07:44.730Z,8.10
2019-05-10T13:10:13.315Z,9.87
2019-05-10T13:12:44.530Z,8.77
2019-05-10T13:15:12.579Z,10.67
2019-05-10T13:17:43.996Z,9.33
2019-05-10T13:20:12.111Z,8.47
2019-05-10T13:22:40.620Z,9.63
2019-05-10T13:25:09.509Z,8.63
2019-05-10T13:27:38.352Z,9.00
2019-05-10T13:30:09.287Z,7.93
2019-05-10T13:32:37.861Z,8.13
2019-05-10T13:35:06.854Z,9.07
2019-05-10T13:37:35.457Z,9.93
2019-05-10T13:40:08.044Z,8.90
2019-05-10T13:42:42.624Z,9.80
2019-05-10T13:45:06.634Z,9.97
2019-05-10T13:47:35.139Z,10.37
2019-05-10T13:50:05.227Z,9.03
2019-05-10T13:52:37.734Z,10.70
2019-05-10T13:55:07.787Z,9.10
2019-05-10T13:57:36.516Z,10.33
2019-05-10T14:00:08.316Z,10.40
2019-05-10T14:02:36.846Z,10.10
2019-05-10T14:05:06.215Z,9.70
2019-05-10T14:07:34.652Z,9.13
2019-05-10T14:10:03.429Z,9.33
2019-05-10T14:12:31.889Z,10.27
2019-05-10T14:15:08.921Z,10.53
2019-05-10T14:17:30.523Z,9.40
2019-05-10T14:19:58.963Z,9.23
2019-05-10T14:22:27.399Z,8.70
2019-05-10T14:24:59.193Z,8.63
2019-05-10T14:27:29.975Z,9.73
2019-05-10T14:29:56.244Z,9.83
2019-05-10T14:32:24.702Z,8.20
2019-05-10T14:34:53.130Z,9.33
2019-05-10T14:37:21.742Z,9.93
2019-05-10T14:39:50.268Z,8.63
2019-05-10T14:42:23.933Z,10.70
2019-05-10T14:44:49.091Z,9.73
2019-05-10T14:47:17.932Z,8.90
2019-05-10T14:49:47.192Z,10.53
2019-05-10T14:52:16.606Z,10.20
2019-05-10T14:54:49.921Z,9.70
2019-05-10T14:57:15.406Z,8.07
2019-05-10T14:59:43.843Z,9.10
2019-05-10T15:02:16.869Z,10.63
2019-05-10T15:04:45.264Z,10.53
2019-05-10T15:07:14.177Z,9.90
2019-05-10T15:09:42.840Z,8.70
2019-05-10T15:12:16.407Z,8.90
2019-05-10T15:14:41.519Z,9.00
2019-05-10T15:17:09.979Z,9.03
2019-05-10T15:19:38.407Z,9.40
2019-05-10T15:22:06.866Z,9.33
2019-05-10T15:24:35.656Z,9.73
2019-05-10T15:27:04.107Z,9.77
2019-05-10T15:29:32.544Z,9.43
2019-05-10T15:32:00.994Z,8.70
2019-05-10T15:34:29.422Z,8.67
2019-05-10T15:37:02.496Z,8.13
2019-05-10T15:39:30.113Z,9.43
2019-05-10T15:41:59.218Z,8.83
2019-05-10T15:44:31.444Z,7.63
2019-05-10T15:46:59.949Z,7.77
2019-05-10T15:49:28.699Z,8.17
2019-05-10T15:52:16.441Z,7.20
2019-05-10T15:54:27.512Z,8.87
2019-05-10T15:56:56.146Z,8.33
2019-05-10T15:59:24.819Z,8.10
2019-05-10T16:01:53.383Z,8.13
2019-05-10T16:04:21.831Z,7.90
2019-05-10T16:06:50.348Z,8.23
2019-05-10T16:09:19.384Z,7.07
2019-05-10T16:11:48.178Z,7.97
2019-05-10T16:14:16.679Z,7.23
2019-05-10T16:16:45.125Z,7.73
2019-05-10T16:19:18.576Z,7.73
2019-05-10T16:21:46.547Z,8.27
2019-05-10T16:24:14.005Z,8.00
2019-05-10T16:26:42.464Z,8.07
2019-05-10T16:29:11.098Z,9.10
2019-05-10T16:31:39.694Z,8.67
2019-05-10T16:34:08.163Z,8.70
2019-05-10T16:36:36.671Z,8.30
2019-05-10T16:39:07.140Z,7.67
2019-05-10T16:41:35.660Z,8.27
2019-05-10T16:44:04.110Z,8.03
2019-05-10T16:46:32.547Z,7.13
2019-05-10T16:49:01.304Z,8.33
2019-05-10T16:51:29.886Z,9.47
2019-05-10T16:53:58.332Z,9.80
2019-05-10T16:56:26.849Z,8.70
2019-05-10T16:58:55.314Z,8.70
2019-05-10T17:01:27.453Z,9.43
2019-05-10T17:03:59.924Z,8.20
2019-05-10T17:06:24.518Z,8.63
2019-05-10T17:08:53.078Z,9.77
2019-05-10T17:11:21.595Z,8.37
2019-05-10T17:13:50.126Z,9.50
2019-05-10T17:16:18.998Z,8.57
2019-05-10T17:18:49.646Z,9.03
2019-05-10T17:21:17.828Z,9.30
2019-05-10T17:23:48.388Z,8.33
2019-05-10T17:26:16.539Z,8.03
2019-05-10T17:28:45.024Z,8.80
2019-05-10T17:31:13.450Z,8.90
2019-05-10T17:33:44.144Z,7.07
2019-05-10T17:36:14.524Z,9.40
2019-05-10T17:38:47.468Z,9.53
2019-05-10T17:41:13.163Z,9.37
2019-05-10T17:43:41.623Z,8.70
2019-05-10T17:46:12.802Z,9.63
2019-05-10T17:48:40.713Z,8.90
2019-05-10T17:51:11.478Z,9.77
2019-05-10T17:53:39.927Z,8.53
2019-05-10T17:56:08.836Z,8.73
2019-05-10T17:58:37.296Z,9.13
2019-05-10T18:01:05.742Z,9.80
2019-05-10T18:03:34.194Z,9.23
2019-05-10T18:06:03.041Z,10.73
2019-05-10T18:08:31.536Z,9.67
2019-05-10T18:11:04.174Z,9.83
2019-05-10T18:13:30.151Z,8.90
2019-05-10T18:15:58.610Z,9.53
2019-05-10T18:18:27.063Z,9.20
2019-05-10T18:20:55.604Z,10.47
2019-05-10T18:23:24.047Z,11.77
2019-05-10T18:25:58.479Z,8.60
2019-05-10T18:28:22.759Z,8.40
2019-05-10T18:30:51.250Z,9.50
2019-05-10T18:33:19.683Z,10.17
2019-05-10T18:35:52.875Z,9.67
2019-05-10T18:38:18.895Z,9.70
2019-05-10T18:40:47.434Z,7.80
2019-05-10T18:43:15.963Z,9.43
2019-05-10T18:45:44.413Z,9.67
2019-05-10T18:48:12.849Z,10.57
2019-05-10T18:50:45.241Z,8.30
2019-05-10T18:53:11.827Z,8.80
2019-05-10T18:55:40.347Z,8.80
2019-05-10T18:58:08.780Z,8.37
2019-05-10T19:00:40.103Z,10.90
2019-05-10T19:03:07.587Z,8.90
2019-05-10T19:05:36.093Z,8.63
2019-05-10T19:08:06.005Z,8.40
2019-05-10T19:10:35.229Z,9.50
2019-05-10T19:13:05.606Z,9.90
2019-05-10T19:15:34.031Z,9.37
2019-05-10T19:18:02.522Z,9.60
2019-05-10T19:20:31.038Z,9.57
2019-05-10T19:22:59.463Z,9.37
2019-05-10T19:25:27.935Z,9.60
2019-05-10T19:27:56.355Z,10.33
2019-05-10T19:30:24.883Z,9.50
2019-05-10T19:32:56.229Z,9.17
2019-05-10T19:35:23.791Z,8.80
2019-05-10T19:37:52.324Z,9.33
2019-05-10T19:40:20.757Z,9.47
2019-05-10T19:42:49.673Z,9.97
2019-05-10T19:45:21.030Z,10.30
2019-05-10T19:47:49.849Z,10.37
2019-05-10T19:50:24.193Z,10.03
2019-05-10T19:52:49.081Z,10.03
2019-05-10T19:55:19.368Z,8.63
2019-05-10T19:57:49.446Z,8.97
2019-05-10T20:00:19.524Z,9.63
2019-05-10T20:02:48.059Z,9.27
2019-05-10T20:05:16.669Z,8.80
2019-05-10T20:07:46.465Z,8.80
2019-05-10T20:10:15.597Z,9.60
2019-05-10T20:12:44.194Z,8.90
2019-05-10T20:15:12.888Z,9.87
2019-05-10T20:17:41.389Z,9.53
2019-05-10T20:20:10.158Z,9.60
2019-05-10T20:22:38.671Z,9.90
2019-05-10T20:25:08.252Z,9.33
2019-05-10T20:27:36.715Z,8.43
2019-05-10T20:30:06.202Z,9.80
2019-05-10T20:32:34.759Z,10.57
2019-05-10T20:35:03.564Z,9.27
2019-05-10T20:37:32.019Z,8.80
2019-05-10T20:40:00.466Z,10.00
2019-05-10T20:42:28.923Z,9.00
2019-05-10T20:45:06.625Z,9.10
2019-05-10T20:47:27.620Z,10.40
2019-05-10T20:49:56.056Z,9.57
2019-05-10T20:52:24.523Z,10.67
2019-05-10T20:54:53.073Z,8.50
2019-05-10T20:57:21.638Z,8.83
2019-05-10T20:59:50.150Z,8.37
2019-05-10T21:02:18.630Z,9.57
2019-05-10T21:04:47.119Z,9.07
2019-05-10T21:07:15.567Z,8.43
2019-05-10T21:09:44.004Z,8.90
2019-05-10T21:12:12.490Z,9.13
2019-05-10T21:14:40.992Z,8.87
2019-05-10T21:17:09.525Z,9.60
2019-05-10T21:19:38.040Z,8.67
2019-05-10T21:22:06.535Z,8.90
2019-05-10T21:24:34.983Z,9.33
2019-05-10T21:27:03.430Z,9.17
2019-05-10T21:29:31.930Z,9.20
2019-05-10T21:32:00.427Z,9.57
2019-05-10T21:34:29.061Z,9.07
2019-05-10T21:36:57.946Z,9.00
2019-05-10T21:39:26.439Z,8.77
2019-05-10T21:41:54.927Z,9.30
2019-05-10T21:44:23.384Z,9.40
2019-05-10T21:46:53.824Z,9.60
2019-05-10T21:49:22.067Z,8.77
2019-05-10T21:51:50.540Z,9.50
2019-05-10T21:54:19.011Z,8.90
2019-05-10T21:56:47.469Z,8.80
2019-05-10T21:59:15.918Z,8.27
2019-05-10T22:01:44.372Z,8.00
2019-05-10T22:04:12.855Z,9.37
2019-05-10T22:06:41.675Z,9.73
2019-05-10T22:09:10.721Z,9.30
2019-05-10T22:11:39.208Z,8.57
2019-05-10T22:14:07.729Z,9.03
2019-05-10T22:16:36.174Z,8.93
2019-05-10T22:19:04.698Z,8.87
2019-05-10T22:21:33.146Z,9.23
2019-05-10T22:24:01.600Z,9.13
2019-05-10T22:26:30.035Z,7.80
2019-05-10T22:28:58.493Z,8.10
2019-05-10T22:31:26.943Z,9.80
2019-05-10T22:33:55.529Z,9.43
2019-05-10T22:36:24.059Z,8.83
2019-05-10T22:39:05.759Z,9.30
2019-05-10T22:41:22.727Z,8.57
2019-05-10T22:43:51.167Z,9.10
2019-05-10T22:46:19.699Z,8.53
2019-05-10T22:48:48.143Z,8.97
2019-05-10T22:51:16.662Z,9.57
2019-05-10T22:53:53.259Z,9.10
2019-05-10T22:56:15.268Z,9.57
2019-05-10T22:58:43.700Z,9.67
2019-05-10T23:01:12.168Z,8.43
2019-05-10T23:03:40.676Z,9.23
2019-05-10T23:06:09.115Z,8.53
2019-05-10T23:08:37.559Z,8.70
2019-05-10T23:11:06.166Z,8.90
2019-05-10T23:13:34.607Z,9.00
2019-05-10T23:16:03.070Z,9.00
2019-05-10T23:18:31.520Z,8.87
2019-05-10T23:20:59.975Z,11.27
2019-05-10T23:23:28.433Z,12.20
2019-05-10T23:25:56.951Z,10.53
2019-05-10T23:28:25.387Z,8.90
2019-05-10T23:30:53.843Z,9.30
2019-05-10T23:33:22.272Z,8.93
2019-05-10T23:35:50.732Z,9.60
2019-05-10T23:38:19.161Z,8.63
2019-05-10T23:40:47.639Z,8.60
2019-05-10T23:43:16.124Z,9.00
2019-05-10T23:45:44.573Z,9.00
2019-05-10T23:48:13.075Z,10.40
2019-05-10T23:50:41.534Z,8.43
2019-05-10T23:53:09.970Z,7.70
2019-05-10T23:55:38.423Z,8.70
2019-05-10T23:58:06.862Z,9.20
